KODX

Evelyn Sharp Field Airport

Ord, Nebraska, USA
METAR KODX 190453Z AUTO 12004KT 10SM CLR 19/18 A2988 RMK AO2 SLP111 T01890183
Observed Flight Rules
Sep-19 @ 04:53 UTC (21 minutes ago) Visual Flight Rules
Wind Visibility Clouds
120° at 4 knots 10 miles
  • Clear skies
Temperatures Readings
Current 19°C / 66°F
Dewpoint 18°C / 64°F
Humidity 94%
Altimeter 29.88" Hg
Pressure 1011.1 hPa
Elevation 631
METAR KODX 190453Z AUTO 12004KT 10SM CLR 19/18 A2988 RMK AO2 SLP111 T01890183
Observed Flight Rules
Sep-19 @ 04:53 UTC
(21 minutes ago)
VFR
Wind Visibility
120° at 4 knots 10 miles
Clouds
  • Clear skies
Temperature Dewpoint
19°C / 66°F 18°C / 64°F
Humidity Altimeter Pressure
94% 29.88" Hg 1011.1 hPa